Time;durP1;ratioP1;P1;durP2;ratioP2;P2;SDS_P1;SDS_P2;PMS_P1;PMS_P2;Temp;Humidity;BMP_temperature;BMP_pressure;BME280_temperature;BME280_humidity;BME280_pressure;Samples;Min_cycle;Max_cycle;Signal;HPM_P1;HPM_P2
2024/01/15 00:02:20;;;;;;;0.00;0.00;;;0.60;99.90;;;;;;5102195;28;20032;-86
2024/01/15 00:04:46;;;;;;;0.87;0.87;;;0.70;99.90;;;;;;5067275;28;20070;-87
2024/01/15 00:07:11;;;;;;;0.00;0.00;;;0.70;99.90;;;;;;5091116;28;20134;-87
2024/01/15 00:09:37;;;;;;;0.00;0.00;;;0.80;99.90;;;;;;5067179;28;20059;-87
2024/01/15 00:12:03;;;;;;;0.60;0.57;;;0.90;99.90;;;;;;5066931;28;20044;-87
2024/01/15 00:14:29;;;;;;;0.00;0.00;;;0.90;99.90;;;;;;5067387;28;20040;-87
2024/01/15 00:16:55;;;;;;;0.00;0.00;;;1.00;99.10;;;;;;5067363;28;20199;-88
2024/01/15 00:19:24;;;;;;;0.10;0.10;;;1.10;99.90;;;;;;5067437;28;20054;-88
2024/01/15 00:21:50;;;;;;;0.00;0.00;;;1.10;99.90;;;;;;5068526;28;20546;-88
2024/01/15 00:24:16;;;;;;;0.00;0.00;;;1.10;1.00;;;;;;5084755;28;20048;-88
2024/01/15 00:26:42;;;;;;;0.00;0.00;;;1.10;1.00;;;;;;5075090;28;20048;-88
2024/01/15 00:29:08;;;;;;;1.33;1.25;;;1.70;1.00;;;;;;5079657;28;20066;-88
2024/01/15 00:31:34;;;;;;;0.00;0.00;;;1.20;1.00;;;;;;5065367;28;20044;-88
2024/01/15 00:34:00;;;;;;;0.00;0.00;;;1.20;7.10;;;;;;5097342;28;20036;-88
2024/01/15 00:36:26;;;;;;;0.00;0.00;;;1.30;17.20;;;;;;5095162;28;20040;-88
2024/01/15 00:38:51;;;;;;;0.00;0.00;;;1.30;1.00;;;;;;5073943;28;20044;-88
2024/01/15 00:41:18;;;;;;;0.10;0.10;;;1.40;1.00;;;;;;5049201;28;20047;-88
2024/01/15 00:43:45;;;;;;;0.00;0.00;;;1.20;1.00;;;;;;5065864;28;20054;-89
2024/01/15 00:46:11;;;;;;;0.00;0.00;;;1.40;1.00;;;;;;5059539;28;20517;-89
2024/01/15 00:48:37;;;;;;;2.13;1.30;;;1.40;1.00;;;;;;5047060;28;20494;-90
2024/01/15 00:51:04;;;;;;;0.00;0.00;;;1.30;1.00;;;;;;5030314;28;20052;-90
2024/01/15 00:53:30;;;;;;;0.00;0.00;;;1.20;1.00;;;;;;5029499;28;20066;-90
2024/01/15 00:55:56;;;;;;;0.00;0.00;;;1.20;22.70;;;;;;5029657;28;20453;-89
2024/01/15 00:58:22;;;;;;;0.00;0.00;;;1.30;69.80;;;;;;5046449;28;20059;-90
2024/01/15 01:00:47;;;;;;;0.00;0.00;;;1.30;58.90;;;;;;5064856;28;20044;-90
2024/01/15 01:03:13;;;;;;;0.00;0.00;;;1.20;45.40;;;;;;5064179;28;20565;-90
2024/01/15 01:05:39;;;;;;;0.00;0.00;;;1.20;81.00;;;;;;5029866;28;20052;-90
2024/01/15 01:08:04;;;;;;;0.30;0.30;;;1.20;99.90;;;;;;5046671;28;20134;-89
2024/01/15 01:10:30;;;;;;;0.00;0.00;;;1.30;99.90;;;;;;5064390;28;20044;-89
2024/01/15 01:12:56;;;;;;;0.00;0.00;;;1.30;99.90;;;;;;5064842;28;20036;-90
2024/01/15 01:15:21;;;;;;;0.00;0.00;;;1.30;99.90;;;;;;5064418;28;20437;-89
2024/01/15 01:17:47;;;;;;;0.00;0.00;;;1.30;99.90;;;;;;5064840;28;20036;-89
2024/01/15 01:20:15;;;;;;;0.00;0.00;;;1.40;99.90;;;;;;5063949;28;20387;-89
2024/01/15 01:22:41;;;;;;;0.00;0.00;;;1.70;99.90;;;;;;5045999;28;20055;-89
2024/01/15 01:25:07;;;;;;;0.00;0.00;;;1.40;99.90;;;;;;5029888;28;20091;-88
2024/01/15 01:27:32;;;;;;;0.00;0.00;;;1.40;99.90;;;;;;5064193;28;20068;-89
2024/01/15 01:29:58;;;;;;;0.00;0.00;;;1.30;99.90;;;;;;5063668;28;20110;-89
2024/01/15 01:32:24;;;;;;;0.00;0.00;;;1.20;99.90;;;;;;5045458;28;20486;-89
2024/01/15 01:34:49;;;;;;;0.00;0.00;;;1.00;99.90;;;;;;5069119;28;20130;-88
2024/01/15 01:37:15;;;;;;;0.00;0.00;;;1.00;99.90;;;;;;5085145;28;20066;-89
2024/01/15 01:39:42;;;;;;;0.00;0.00;;;1.00;99.90;;;;;;5068010;28;20050;-88
2024/01/15 01:42:08;;;;;;;0.00;0.00;;;0.90;99.90;;;;;;5098190;28;20043;-89
2024/01/15 01:44:33;;;;;;;0.00;0.00;;;0.80;99.90;;;;;;5048550;28;20048;-88
2024/01/15 01:47:00;;;;;;;0.22;0.22;;;1.00;99.90;;;;;;5065343;28;20108;-88
2024/01/15 01:49:27;;;;;;;1.85;1.52;;;1.00;99.90;;;;;;5083111;28;20471;-88
2024/01/15 01:51:55;;;;;;;0.00;0.00;;;1.10;99.90;;;;;;5083442;28;20051;-89
2024/01/15 01:54:21;;;;;;;0.00;0.00;;;1.20;99.90;;;;;;5065112;28;20090;-88
2024/01/15 01:56:48;;;;;;;0.20;0.20;;;1.20;99.90;;;;;;5083026;28;20083;-89
2024/01/15 01:59:14;;;;;;;0.00;0.00;;;1.20;99.90;;;;;;5095224;28;20097;-88
2024/01/15 02:01:41;;;;;;;0.00;0.00;;;1.10;99.90;;;;;;5085355;28;20135;-89
2024/01/15 02:04:08;;;;;;;0.00;0.00;;;1.10;99.90;;;;;;5085307;28;20730;-89
2024/01/15 02:06:34;;;;;;;0.00;0.00;;;1.00;99.90;;;;;;5103237;28;20048;-89
2024/01/15 02:09:00;;;;;;;1.98;0.85;;;1.00;99.90;;;;;;5094636;28;20509;-89
2024/01/15 02:11:26;;;;;;;0.00;0.00;;;0.90;99.90;;;;;;5047677;28;20051;-88
2024/01/15 02:13:52;;;;;;;0.10;0.10;;;0.90;99.90;;;;;;5083339;28;20044;-89
2024/01/15 02:16:17;;;;;;;0.00;0.00;;;0.90;99.90;;;;;;5086982;28;20051;-88
2024/01/15 02:18:45;;;;;;;0.10;0.10;;;0.90;1.00;;;;;;5068211;28;20075;-89
2024/01/15 02:21:11;;;;;;;0.00;0.00;;;0.90;1.00;;;;;;5068241;28;20039;-88
2024/01/15 02:23:38;;;;;;;0.00;0.00;;;1.00;1.00;;;;;;5068565;28;20040;-88
2024/01/15 02:26:04;;;;;;;0.38;0.38;;;1.00;1.00;;;;;;5076923;28;20086;-88
2024/01/15 02:28:32;;;;;;;0.00;0.00;;;0.90;1.00;;;;;;5048161;28;20045;-88
2024/01/15 02:30:58;;;;;;;0.00;0.00;;;1.00;1.00;;;;;;5048848;28;20048;-88
2024/01/15 02:33:23;;;;;;;0.00;0.00;;;0.90;1.00;;;;;;5100981;28;20493;-88
2024/01/15 02:35:52;;;;;;;0.00;0.00;;;0.90;99.90;;;;;;5075381;28;20046;-88
2024/01/15 02:38:18;;;;;;;0.00;0.00;;;0.90;1.00;;;;;;5068303;28;20515;-88
2024/01/15 02:40:44;;;;;;;0.10;0.10;;;0.90;1.00;;;;;;5105634;28;20058;-88
2024/01/15 02:43:10;;;;;;;2.53;1.30;;;0.90;1.00;;;;;;5101330;28;20047;-88
2024/01/15 02:45:36;;;;;;;1.02;0.95;;;1.10;1.00;;;;;;5086206;28;20513;-88
2024/01/15 02:48:01;;;;;;;0.00;0.00;;;1.20;1.00;;;;;;5067786;28;20382;-88
2024/01/15 02:50:27;;;;;;;0.00;0.00;;;1.40;1.00;;;;;;5085965;28;20044;-88
2024/01/15 02:52:53;;;;;;;0.00;0.00;;;1.40;1.00;;;;;;5050850;28;20958;-88
2024/01/15 02:55:18;;;;;;;0.00;0.00;;;1.40;1.00;;;;;;5086600;28;20040;-89
2024/01/15 02:57:44;;;;;;;0.00;0.00;;;1.50;1.00;;;;;;5068307;28;20128;-89
2024/01/15 03:00:10;;;;;;;0.00;0.00;;;1.40;1.00;;;;;;5067983;28;20494;-89
2024/01/15 03:02:40;;;;;;;0.00;0.00;;;1.50;1.00;;;;;;5067768;28;20081;-89
2024/01/15 03:05:09;;;;;;;0.20;0.20;;;1.50;1.00;;;;;;5087142;28;20055;-90
2024/01/15 03:07:34;;;;;;;0.00;0.00;;;1.50;1.00;;;;;;5106361;28;20075;-89
2024/01/15 03:10:00;;;;;;;5.47;2.03;;;1.50;1.00;;;;;;5071176;28;20102;-90
2024/01/15 03:12:26;;;;;;;0.00;0.00;;;1.50;1.00;;;;;;5076095;28;20052;-89
2024/01/15 03:14:51;;;;;;;0.00;0.00;;;1.40;99.90;;;;;;5067593;28;20482;-89
2024/01/15 03:17:17;;;;;;;0.00;0.00;;;1.40;1.00;;;;;;5086170;28;20040;-89
2024/01/15 03:19:43;;;;;;;0.13;0.13;;;1.30;99.90;;;;;;5068356;28;20087;-89
2024/01/15 03:22:08;;;;;;;0.32;0.32;;;1.40;1.00;;;;;;5067787;28;20040;-90
2024/01/15 03:24:35;;;;;;;0.00;0.00;;;1.30;99.90;;;;;;5067892;28;20426;-89
2024/01/15 03:27:01;;;;;;;0.00;0.00;;;1.30;1.00;;;;;;5050856;28;20091;-90
2024/01/15 03:29:27;;;;;;;0.00;0.00;;;1.10;99.90;;;;;;5086197;28;20083;-90
2024/01/15 03:31:52;;;;;;;0.00;0.00;;;1.10;1.00;;;;;;5067571;28;20060;-89
2024/01/15 03:34:18;;;;;;;1.63;1.53;;;1.00;1.00;;;;;;5086271;28;20505;-89
2024/01/15 03:36:44;;;;;;;0.20;0.20;;;0.90;1.00;;;;;;5050339;28;20052;-89
2024/01/15 03:39:09;;;;;;;0.23;0.23;;;0.90;1.00;;;;;;5086227;28;20040;-90
2024/01/15 03:41:35;;;;;;;0.00;0.00;;;1.10;1.00;;;;;;5086042;28;20071;-90
2024/01/15 03:44:01;;;;;;;0.07;0.07;;;1.50;1.00;;;;;;5051170;28;20052;-90
2024/01/15 03:46:27;;;;;;;0.70;0.67;;;1.10;1.00;;;;;;5069221;28;20059;-90
2024/01/15 03:48:53;;;;;;;1.15;0.98;;;1.00;1.00;;;;;;5068456;28;20055;-90
2024/01/15 03:51:19;;;;;;;0.20;0.20;;;0.90;1.00;;;;;;5051421;28;20055;-90
2024/01/15 03:53:45;;;;;;;0.15;0.15;;;0.90;1.00;;;;;;5067876;28;20048;-90
2024/01/15 03:56:11;;;;;;;0.00;0.00;;;0.80;1.00;;;;;;5051113;28;20426;-90
2024/01/15 03:58:36;;;;;;;0.00;0.00;;;0.90;1.00;;;;;;5051570;28;20052;-90
2024/01/15 04:01:02;;;;;;;3.10;2.58;;;0.90;1.00;;;;;;5067501;28;20041;-90
2024/01/15 04:03:28;;;;;;;0.00;0.00;;;1.00;1.00;;;;;;5067963;28;20554;-90
2024/01/15 04:05:53;;;;;;;0.00;0.00;;;1.10;12.10;;;;;;5067574;28;20054;-89
2024/01/15 04:08:19;;;;;;;4.63;1.07;;;1.30;10.40;;;;;;5067079;28;20122;-90
2024/01/15 04:10:45;;;;;;;0.00;0.00;;;1.20;1.00;;;;;;5067529;28;20136;-90
2024/01/15 04:13:10;;;;;;;0.10;0.10;;;1.20;2.50;;;;;;5051088;28;20048;-90
2024/01/15 04:15:36;;;;;;;0.00;0.00;;;1.20;8.80;;;;;;5085513;28;20051;-90
2024/01/15 04:18:03;;;;;;;1.80;1.50;;;1.20;1.00;;;;;;5050632;28;20117;-90
2024/01/15 04:20:28;;;;;;;0.80;0.80;;;1.20;1.00;;;;;;5085732;28;20079;-90
2024/01/15 04:22:54;;;;;;;0.22;0.22;;;1.20;1.00;;;;;;5050110;28;20075;-90
2024/01/15 04:25:20;;;;;;;0.63;0.63;;;1.30;1.00;;;;;;5066930;28;20109;-90
2024/01/15 04:27:45;;;;;;;0.00;0.00;;;1.40;1.00;;;;;;5066799;28;20054;-89
2024/01/15 04:30:11;;;;;;;0.35;0.35;;;1.40;1.00;;;;;;5066228;28;20067;-89
2024/01/15 04:32:37;;;;;;;0.00;0.00;;;1.50;99.90;;;;;;5066832;28;20397;-90
2024/01/15 04:35:03;;;;;;;0.75;0.75;;;1.50;97.00;;;;;;5084937;28;20371;-89
2024/01/15 04:37:29;;;;;;;0.00;0.00;;;1.60;99.90;;;;;;5084774;28;20036;-90
2024/01/15 04:39:55;;;;;;;0.00;0.00;;;1.50;63.80;;;;;;5085202;28;20040;-90
2024/01/15 04:42:23;;;;;;;0.00;0.00;;;1.50;1.00;;;;;;5085392;28;20097;-90
2024/01/15 04:44:49;;;;;;;0.30;0.30;;;1.50;1.00;;;;;;5084825;28;20134;-89
2024/01/15 04:47:15;;;;;;;0.00;0.00;;;1.30;99.90;;;;;;5049808;28;20109;-90
2024/01/15 04:49:40;;;;;;;0.00;0.00;;;1.20;99.90;;;;;;5067085;28;20059;-90
2024/01/15 04:52:06;;;;;;;0.00;0.00;;;1.00;99.90;;;;;;5049730;28;20051;-89
2024/01/15 04:54:32;;;;;;;0.00;0.00;;;0.70;99.90;;;;;;5066829;28;20048;-90
2024/01/15 04:57:01;;;;;;;0.00;0.00;;;0.70;1.00;;;;;;5085078;28;20486;-89
2024/01/15 04:59:26;;;;;;;0.00;0.00;;;0.60;1.00;;;;;;5049310;28;20094;-90
2024/01/15 05:01:52;;;;;;;0.15;0.15;;;0.40;1.00;;;;;;5049618;28;20060;-90
2024/01/15 05:04:17;;;;;;;0.00;0.00;;;0.30;30.30;;;;;;5065882;28;20044;-90
2024/01/15 05:06:43;;;;;;;0.10;0.10;;;0.30;99.90;;;;;;5065993;28;20058;-90
2024/01/15 05:09:09;;;;;;;0.00;0.00;;;0.30;99.90;;;;;;5066223;28;20441;-89
2024/01/15 05:11:34;;;;;;;0.00;0.00;;;0.20;99.90;;;;;;5083918;28;20482;-89
2024/01/15 05:14:00;;;;;;;0.00;0.00;;;0.20;99.90;;;;;;5065153;28;20053;-89
2024/01/15 05:16:25;;;;;;;0.00;0.00;;;0.10;99.90;;;;;;5048490;28;20047;-89
2024/01/15 05:18:51;;;;;;;0.00;0.00;;;0.10;99.90;;;;;;5049008;28;20099;-89
2024/01/15 05:21:17;;;;;;;0.00;0.00;;;0.10;99.90;;;;;;5048859;28;20051;-89
2024/01/15 05:23:42;;;;;;;0.00;0.00;;;0.10;99.90;;;;;;5048523;28;20044;-89
2024/01/15 05:26:11;;;;;;;0.00;0.00;;;0.10;99.90;;;;;;5065311;28;20060;-89
2024/01/15 05:28:36;;;;;;;0.00;0.00;;;0.00;99.90;;;;;;5065378;28;20493;-89
2024/01/15 05:31:03;;;;;;;0.00;0.00;;;0.10;99.90;;;;;;5083916;28;20040;-89
2024/01/15 05:33:28;;;;;;;0.00;0.00;;;0.20;99.90;;;;;;5048629;28;20055;-89
2024/01/15 05:35:54;;;;;;;0.00;0.00;;;0.20;99.90;;;;;;5089956;28;20374;-89
2024/01/15 05:38:20;;;;;;;0.00;0.00;;;0.20;99.90;;;;;;5103745;28;20386;-89
2024/01/15 05:40:45;;;;;;;0.00;0.00;;;1.60;99.90;;;;;;5071859;28;20044;-89
2024/01/15 05:43:11;;;;;;;0.00;0.00;;;0.20;99.90;;;;;;5064744;28;20051;-89
2024/01/15 05:45:38;;;;;;;0.00;0.00;;;0.20;99.90;;;;;;5065496;28;20067;-89
2024/01/15 05:48:04;;;;;;;0.00;0.00;;;0.20;99.90;;;;;;5064704;28;20048;-89
2024/01/15 05:50:29;;;;;;;0.00;0.00;;;0.20;99.90;;;;;;5064928;28;20516;-89
2024/01/15 05:52:55;;;;;;;0.00;0.00;;;0.20;99.90;;;;;;5065312;28;20069;-89
2024/01/15 05:55:21;;;;;;;0.80;0.70;;;0.20;99.90;;;;;;5082913;28;20040;-89
2024/01/15 05:57:46;;;;;;;0.00;0.00;;;0.20;99.90;;;;;;5065084;28;20081;-89
2024/01/15 06:00:12;;;;;;;0.30;0.30;;;0.20;99.90;;;;;;5097479;28;20072;-89
2024/01/15 06:02:39;;;;;;;0.10;0.10;;;0.30;99.90;;;;;;5050441;28;20052;-89
2024/01/15 06:05:05;;;;;;;0.00;0.00;;;0.30;99.90;;;;;;5082756;28;20051;-89
2024/01/15 06:07:33;;;;;;;0.00;0.00;;;0.30;99.90;;;;;;5044129;28;20056;-89
2024/01/15 06:10:00;;;;;;;0.00;0.00;;;0.30;99.90;;;;;;5044904;28;20457;-89
2024/01/15 06:12:27;;;;;;;0.80;0.70;;;0.30;99.90;;;;;;5043429;28;20048;-89
2024/01/15 06:14:53;;;;;;;0.00;0.00;;;0.40;99.90;;;;;;5060912;28;20052;-89
2024/01/15 06:17:19;;;;;;;0.00;0.00;;;0.50;99.90;;;;;;5080106;28;20040;-89
2024/01/15 06:19:44;;;;;;;0.00;0.00;;;0.60;99.90;;;;;;5081817;28;20048;-89
2024/01/15 06:22:10;;;;;;;0.00;0.00;;;0.70;99.90;;;;;;5081153;28;20105;-89
2024/01/15 06:24:35;;;;;;;3.03;1.70;;;0.80;99.90;;;;;;5081024;28;20044;-89
2024/01/15 06:27:01;;;;;;;0.00;0.00;;;0.80;99.90;;;;;;5082085;28;20501;-90
2024/01/15 06:29:28;;;;;;;0.15;0.15;;;0.90;99.90;;;;;;5044268;28;20123;-90
2024/01/15 06:31:53;;;;;;;0.00;0.00;;;0.90;1.00;;;;;;5060234;28;20060;-89
2024/01/15 06:34:19;;;;;;;0.00;0.00;;;0.90;1.00;;;;;;5060422;28;20045;-90
2024/01/15 06:36:45;;;;;;;0.00;0.00;;;1.00;99.90;;;;;;5062882;28;20054;-90
2024/01/15 06:39:10;;;;;;;0.00;0.00;;;1.00;99.90;;;;;;5061335;28;20044;-90
2024/01/15 06:41:43;;;;;;;0.00;0.00;;;1.00;99.90;;;;;;5060739;28;20098;-90
2024/01/15 06:44:12;;;;;;;2.30;1.45;;;0.90;99.90;;;;;;5060456;28;20060;-89
2024/01/15 06:46:45;;;;;;;2.03;0.73;;;0.80;99.90;;;;;;5061962;28;20040;-89
2024/01/15 06:49:11;;;;;;;0.00;0.00;;;1.80;99.90;;;;;;5044177;28;20055;-90
2024/01/15 06:51:37;;;;;;;0.07;0.07;;;0.80;99.90;;;;;;5062508;28;20402;-89
2024/01/15 06:54:03;;;;;;;2.40;1.10;;;0.80;99.90;;;;;;5044357;28;20123;-90
2024/01/15 06:56:29;;;;;;;0.30;0.30;;;0.80;99.90;;;;;;5043341;28;20401;-89
2024/01/15 06:58:54;;;;;;;0.00;0.00;;;0.70;99.90;;;;;;5044788;28;20445;-90
2024/01/15 07:01:20;;;;;;;0.00;0.00;;;0.90;99.90;;;;;;5062707;28;20040;-90
2024/01/15 07:03:48;;;;;;;0.00;0.00;;;0.80;99.90;;;;;;5048031;28;20076;-89
2024/01/15 07:06:14;;;;;;;0.00;0.00;;;0.70;99.90;;;;;;5064302;28;20048;-89
2024/01/15 07:08:40;;;;;;;0.43;0.43;;;0.70;99.90;;;;;;5082828;28;20390;-90
2024/01/15 07:11:06;;;;;;;2.60;1.65;;;0.70;99.90;;;;;;5088482;28;20385;-89
2024/01/15 07:13:32;;;;;;;0.30;0.30;;;0.60;99.90;;;;;;5105376;28;20138;-89
2024/01/15 07:15:58;;;;;;;0.20;0.20;;;0.60;99.90;;;;;;5084732;28;20040;-89
2024/01/15 07:18:25;;;;;;;0.00;0.00;;;0.60;99.90;;;;;;5049829;28;20523;-89
2024/01/15 07:20:50;;;;;;;0.85;0.85;;;0.60;99.90;;;;;;5033288;28;20056;-89
2024/01/15 07:23:17;;;;;;;0.00;0.00;;;0.60;99.90;;;;;;5052732;28;21631;-89
2024/01/15 07:25:43;;;;;;;0.00;0.00;;;0.70;99.90;;;;;;5106008;28;20073;-89
2024/01/15 07:28:09;;;;;;;0.10;0.10;;;1.50;99.90;;;;;;5105548;28;20450;-89
2024/01/15 07:30:34;;;;;;;0.00;0.00;;;0.60;99.90;;;;;;5056234;28;20044;-89
2024/01/15 07:33:00;;;;;;;0.00;0.00;;;0.50;99.90;;;;;;5090142;28;20047;-89
2024/01/15 07:35:26;;;;;;;0.10;0.10;;;0.50;99.90;;;;;;5105657;28;20238;-89
2024/01/15 07:37:51;;;;;;;0.10;0.10;;;0.50;99.90;;;;;;5091419;28;20047;-89
2024/01/15 07:40:17;;;;;;;0.13;0.13;;;0.40;99.90;;;;;;5085388;28;20044;-89
2024/01/15 07:42:43;;;;;;;0.00;0.00;;;0.40;99.90;;;;;;5067049;28;20127;-89
2024/01/15 07:45:10;;;;;;;0.43;0.43;;;0.40;99.90;;;;;;5066916;28;20044;-89
2024/01/15 07:47:35;;;;;;;0.00;0.00;;;0.50;99.90;;;;;;5085111;28;20506;-89
2024/01/15 07:50:01;;;;;;;0.00;0.00;;;0.50;99.90;;;;;;5050201;28;20058;-89
2024/01/15 07:52:26;;;;;;;0.00;0.00;;;0.40;99.90;;;;;;5084878;28;20141;-89
2024/01/15 07:54:52;;;;;;;0.10;0.10;;;0.50;99.90;;;;;;5096552;28;20114;-89
2024/01/15 07:57:18;;;;;;;0.10;0.10;;;0.50;99.90;;;;;;5063490;28;20105;-89
2024/01/15 07:59:43;;;;;;;0.00;0.00;;;0.50;99.90;;;;;;5103313;28;20089;-89
2024/01/15 08:02:09;;;;;;;0.00;0.00;;;0.60;99.90;;;;;;5086691;28;20420;-89
2024/01/15 08:04:37;;;;;;;0.00;0.00;;;0.70;99.90;;;;;;5086404;28;20054;-89
2024/01/15 08:07:03;;;;;;;0.00;0.00;;;0.80;99.90;;;;;;5093306;28;20056;-89
2024/01/15 08:09:29;;;;;;;0.00;0.00;;;0.80;99.90;;;;;;5091798;28;20100;-89
2024/01/15 08:11:55;;;;;;;0.00;0.00;;;0.80;99.90;;;;;;5105219;28;20050;-89
2024/01/15 08:14:20;;;;;;;0.00;0.00;;;0.70;99.90;;;;;;5105381;28;20043;-89
2024/01/15 08:16:46;;;;;;;0.00;0.00;;;0.90;99.90;;;;;;5086893;28;20499;-89
2024/01/15 08:19:11;;;;;;;0.00;0.00;;;0.70;99.90;;;;;;5105553;28;20047;-89
2024/01/15 08:21:37;;;;;;;1.02;0.65;;;0.70;99.90;;;;;;5087038;28;20528;-89
2024/01/15 08:24:05;;;;;;;0.00;0.00;;;0.70;99.90;;;;;;5070611;28;20040;-89
2024/01/15 08:26:32;;;;;;;0.00;0.00;;;1.40;99.90;;;;;;5106507;28;20047;-89
2024/01/15 08:28:57;;;;;;;0.00;0.00;;;0.70;99.90;;;;;;5105949;28;20055;-88
2024/01/15 08:31:23;;;;;;;0.00;0.00;;;0.70;99.90;;;;;;5096195;28;20439;-89
2024/01/15 08:33:49;;;;;;;0.00;0.00;;;0.70;99.90;;;;;;5085931;28;20044;-89
2024/01/15 08:36:15;;;;;;;0.00;0.00;;;0.70;99.90;;;;;;5104642;28;20040;-88
2024/01/15 08:38:40;;;;;;;0.00;0.00;;;1.40;99.90;;;;;;5085100;28;20908;-88
2024/01/15 08:41:08;;;;;;;0.00;0.00;;;0.70;99.90;;;;;;5084915;28;20118;-88
2024/01/15 08:43:34;;;;;;;0.00;0.00;;;0.70;99.90;;;;;;5065059;28;20056;-88
2024/01/15 08:46:00;;;;;;;0.00;0.00;;;0.70;99.90;;;;;;5047535;28;20097;-88
2024/01/15 08:48:27;;;;;;;0.03;0.03;;;0.70;99.90;;;;;;5082506;28;20051;-88
2024/01/15 08:50:54;;;;;;;1.45;1.35;;;0.80;99.90;;;;;;5047473;28;20105;-88
2024/01/15 08:53:20;;;;;;;0.00;0.00;;;0.80;99.90;;;;;;5089723;28;20039;-88
2024/01/15 08:55:45;;;;;;;0.00;0.00;;;0.90;99.90;;;;;;5084550;28;20471;-88
2024/01/15 08:58:11;;;;;;;0.00;0.00;;;1.00;99.90;;;;;;5067500;28;20092;-88
2024/01/15 09:00:37;;;;;;;0.50;0.50;;;1.10;99.90;;;;;;5067227;28;20065;-88
2024/01/15 09:03:03;;;;;;;0.00;0.00;;;1.20;99.90;;;;;;5102680;28;20047;-88
2024/01/15 09:05:29;;;;;;;0.00;0.00;;;1.20;84.60;;;;;;5102525;28;20047;-89
2024/01/15 09:07:54;;;;;;;0.80;0.80;;;1.30;97.10;;;;;;5084962;28;20067;-88
2024/01/15 09:10:20;;;;;;;10.30;1.83;;;1.40;99.90;;;;;;5068477;28;20415;-88
2024/01/15 09:12:46;;;;;;;0.10;0.10;;;1.40;99.90;;;;;;5085117;28;20087;-89
2024/01/15 09:15:12;;;;;;;0.25;0.25;;;1.50;99.90;;;;;;5068437;28;20040;-89
2024/01/15 09:17:38;;;;;;;0.00;0.00;;;2.10;99.90;;;;;;5085840;28;20043;-89
2024/01/15 09:20:05;;;;;;;0.10;0.10;;;1.80;99.90;;;;;;5086547;28;20101;-89
2024/01/15 09:22:31;;;;;;;0.00;0.00;;;1.70;99.90;;;;;;5069314;28;20075;-89
2024/01/15 09:24:57;;;;;;;0.00;0.00;;;1.80;98.90;;;;;;5068669;28;20075;-89
2024/01/15 09:27:22;;;;;;;0.00;0.00;;;1.70;99.90;;;;;;5069547;28;20047;-89
2024/01/15 09:29:48;;;;;;;0.00;0.00;;;1.70;95.30;;;;;;5086218;28;20477;-89
2024/01/15 09:32:15;;;;;;;0.07;0.07;;;1.60;77.40;;;;;;5085642;28;20340;-89
2024/01/15 09:34:41;;;;;;;0.25;0.25;;;1.60;93.80;;;;;;5086299;28;20048;-89
2024/01/15 09:37:07;;;;;;;0.00;0.00;;;1.50;35.70;;;;;;5086585;28;20390;-89
2024/01/15 09:39:32;;;;;;;0.00;0.00;;;1.60;1.00;;;;;;5068751;28;20088;-89
2024/01/15 09:41:59;;;;;;;0.00;0.00;;;1.60;1.00;;;;;;5104482;28;20039;-89
2024/01/15 09:44:26;;;;;;;0.00;0.00;;;1.60;42.80;;;;;;5104092;28;20066;-89
2024/01/15 09:46:52;;;;;;;0.00;0.00;;;1.50;27.50;;;;;;5069117;28;20050;-89
2024/01/15 09:49:18;;;;;;;0.00;0.00;;;1.60;96.50;;;;;;5085518;28;20048;-89
2024/01/15 09:51:45;;;;;;;0.00;0.00;;;1.70;21.90;;;;;;5049616;28;20082;-89
2024/01/15 09:54:13;;;;;;;0.00;0.00;;;1.70;1.00;;;;;;5066423;28;20078;-89
2024/01/15 09:56:39;;;;;;;0.00;0.00;;;1.80;99.90;;;;;;5048799;28;20047;-89
2024/01/15 09:59:04;;;;;;;0.00;0.00;;;1.80;99.90;;;;;;5066063;28;20485;-89
2024/01/15 10:01:32;;;;;;;0.00;0.00;;;1.70;99.90;;;;;;5066627;28;20524;-89
2024/01/15 10:03:58;;;;;;;0.00;0.00;;;1.60;99.90;;;;;;5085241;28;20059;-89
2024/01/15 10:06:29;;;;;;;1.38;0.85;;;1.50;99.90;;;;;;5065468;28;20135;-89
2024/01/15 10:08:58;;;;;;;0.10;0.10;;;1.50;99.90;;;;;;5082155;28;20485;-89
2024/01/15 10:11:24;;;;;;;0.00;0.00;;;1.50;99.90;;;;;;5064166;28;20921;-89
2024/01/15 10:13:53;;;;;;;0.00;0.00;;;1.60;1.00;;;;;;5082697;28;20036;-90
2024/01/15 10:16:22;;;;;;;0.00;0.00;;;2.10;1.00;;;;;;5082184;28;20059;-89
2024/01/15 10:18:48;;;;;;;0.00;0.00;;;1.60;1.00;;;;;;5047201;28;20048;-90
2024/01/15 10:21:15;;;;;;;0.00;0.00;;;1.70;1.00;;;;;;5082732;28;20395;-90
2024/01/15 10:23:41;;;;;;;0.00;0.00;;;1.80;20.70;;;;;;5081946;28;20081;-90
2024/01/15 10:26:07;;;;;;;0.00;0.00;;;2.00;18.00;;;;;;5064072;28;20039;-90
2024/01/15 10:28:33;;;;;;;0.75;0.75;;;2.10;1.00;;;;;;5064709;28;20498;-90
2024/01/15 10:31:00;;;;;;;0.00;0.00;;;2.10;1.00;;;;;;5047912;28;20131;-91
2024/01/15 10:33:26;;;;;;;0.00;0.00;;;2.90;99.90;;;;;;5047818;28;20058;-91
2024/01/15 10:35:57;;;;;;;0.00;0.00;;;1.90;99.90;;;;;;5049079;28;20036;-91
2024/01/15 10:38:23;;;;;;;0.03;0.03;;;1.90;1.00;;;;;;5052068;28;20044;-91
2024/01/15 10:40:55;;;;;;;0.10;0.10;;;1.80;1.00;;;;;;5053187;28;20054;-90
2024/01/15 10:43:22;;;;;;;0.00;0.00;;;3.10;99.90;;;;;;5053001;28;20398;-90
2024/01/15 10:45:51;;;;;;;0.00;0.00;;;2.60;1.00;;;;;;5068226;28;20436;-90
2024/01/15 10:48:19;;;;;;;0.00;0.00;;;2.00;42.00;;;;;;5087205;28;20099;-91
2024/01/15 10:50:45;;;;;;;0.00;0.00;;;2.00;1.00;;;;;;5069534;28;20791;-91
2024/01/15 10:53:16;;;;;;;0.00;0.00;;;2.10;1.00;;;;;;5068551;28;20575;-91
2024/01/15 10:55:42;;;;;;;0.00;0.00;;;2.30;1.00;;;;;;5087168;28;20050;-91
2024/01/15 10:58:09;;;;;;;0.00;0.00;;;2.50;1.00;;;;;;5068158;28;20131;-91
2024/01/15 11:00:37;;;;;;;0.00;0.00;;;2.70;1.00;;;;;;5069817;28;20066;-91
2024/01/15 11:03:05;;;;;;;0.00;0.00;;;2.90;1.00;;;;;;5087671;28;20071;-91
2024/01/15 11:05:43;;;;;;;2.33;1.08;;;2.80;99.90;;;;;;5069108;28;20058;-90
2024/01/15 11:08:09;;;;;;;0.00;0.00;;;2.80;80.10;;;;;;5070040;28;20067;-91
2024/01/15 11:10:41;;;;;;;0.00;0.00;;;2.80;94.30;;;;;;5088334;28;20124;-91
2024/01/15 11:13:21;;;;;;;4.28;1.55;;;2.80;99.90;;;;;;5086854;28;20071;-91
2024/01/15 11:16:07;;;;;;;0.00;0.00;;;2.70;99.90;;;;;;5068078;28;20123;-91
2024/01/15 11:18:41;;;;;;;0.20;0.20;;;2.60;56.40;;;;;;5086103;28;20040;-91
2024/01/15 11:21:14;;;;;;;0.00;0.00;;;2.50;81.90;;;;;;5068602;28;20044;-91
2024/01/15 11:23:47;;;;;;;0.00;0.00;;;2.30;99.90;;;;;;5068229;28;20077;-91
2024/01/15 11:26:38;;;;;;;0.00;0.00;;;3.30;99.90;;;;;;5086919;28;20052;-90
2024/01/15 11:29:09;;;;;;;0.00;0.00;;;1.80;99.90;;;;;;5068180;28;20484;-91
2024/01/15 11:31:40;;;;;;;0.00;0.00;;;1.80;1.00;;;;;;5067981;28;20561;-90
2024/01/15 11:34:07;;;;;;;0.00;0.00;;;1.70;1.00;;;;;;5067429;28;20501;-90
2024/01/15 11:36:56;;;;;;;0.00;0.00;;;1.60;78.80;;;;;;5067904;28;20044;-90
2024/01/15 11:39:28;;;;;;;0.00;0.00;;;1.60;99.90;;;;;;5054654;28;20498;-90
2024/01/15 11:42:04;;;;;;;0.00;0.00;;;1.60;99.90;;;;;;5067786;28;20105;-89
2024/01/15 11:44:30;;;;;;;;;;;1.60;99.90;;;;;;5068514;28;20464;-90
2024/01/15 11:47:00;;;;;;;0.00;0.00;;;1.70;99.90;;;;;;5067753;28;20022;-90
2024/01/15 11:50:05;;;;;;;0.00;0.00;;;1.60;99.90;;;;;;5067081;28;20044;-90
2024/01/15 11:52:38;;;;;;;0.00;0.00;;;1.60;1.00;;;;;;5063872;28;20125;-91
2024/01/15 11:55:16;;;;;;;0.00;0.00;;;1.60;1.00;;;;;;5050919;28;20040;-91
2024/01/15 11:57:46;;;;;;;0.00;0.00;;;1.70;1.00;;;;;;5067673;28;20119;-90
2024/01/15 12:00:13;;;;;;;0.00;0.00;;;1.70;1.00;;;;;;5067183;28;20047;-91
2024/01/15 12:02:46;;;;;;;0.00;0.00;;;1.70;1.00;;;;;;5067387;28;20504;-91
2024/01/15 12:05:14;;;;;;;0.40;0.40;;;1.70;1.00;;;;;;5067275;28;20044;-90
2024/01/15 12:07:44;;;;;;;1.45;1.35;;;1.70;1.00;;;;;;5085755;28;20094;-90
2024/01/15 12:10:20;;;;;;;0.00;0.00;;;1.60;1.00;;;;;;5050837;28;20051;-91
2024/01/15 12:12:49;;;;;;;0.00;0.00;;;1.50;1.00;;;;;;5067807;28;20059;-91
2024/01/15 12:15:15;;;;;;;0.00;0.00;;;1.20;1.00;;;;;;5068308;28;20856;-92
2024/01/15 12:17:41;;;;;;;0.00;0.00;;;1.10;68.40;;;;;;5067147;28;20518;-91
2024/01/15 12:20:06;;;;;;;0.00;0.00;;;2.40;99.90;;;;;;5067546;28;20056;-91
2024/01/15 12:22:33;;;;;;;0.00;0.00;;;1.10;99.90;;;;;;5051501;28;20051;-90
2024/01/15 12:24:58;;;;;;;0.60;0.60;;;1.10;99.90;;;;;;5067830;28;20139;-91
2024/01/15 12:27:24;;;;;;;0.00;0.00;;;1.20;99.90;;;;;;5085898;28;20127;-90
2024/01/15 12:29:50;;;;;;;0.00;0.00;;;1.20;99.90;;;;;;5085295;28;20063;-90
2024/01/15 12:32:16;;;;;;;0.00;0.00;;;1.30;99.90;;;;;;5085103;28;20036;-90
2024/01/15 12:34:43;;;;;;;7.88;2.17;;;1.40;99.90;;;;;;5050220;28;20048;-90
2024/01/15 12:37:08;;;;;;;0.00;0.00;;;1.40;99.90;;;;;;5066801;28;20052;-90
2024/01/15 12:39:35;;;;;;;0.00;0.00;;;1.50;99.90;;;;;;5049949;28;20052;-90
2024/01/15 12:42:02;;;;;;;0.00;0.00;;;2.10;1.00;;;;;;5066397;28;20083;-89
2024/01/15 12:44:28;;;;;;;0.88;0.52;;;1.40;99.90;;;;;;5084787;28;20443;-90
2024/01/15 12:46:54;;;;;;;0.00;0.00;;;1.40;99.90;;;;;;5049542;28;20927;-89
2024/01/15 12:49:21;;;;;;;0.00;0.00;;;1.40;1.00;;;;;;5066330;28;20419;-89
2024/01/15 12:51:59;;;;;;;0.00;0.00;;;1.40;1.00;;;;;;5086308;28;20126;-89
2024/01/15 12:54:26;;;;;;;1.10;0.45;;;1.40;1.00;;;;;;5085689;28;20048;-89
2024/01/15 12:56:52;;;;;;;0.00;0.00;;;1.60;27.50;;;;;;5085674;28;20040;-89
2024/01/15 12:59:18;;;;;;;0.00;0.00;;;1.70;11.20;;;;;;5052828;28;20133;-89